logo
Rechercher aéroport 
image banner adimage banner adimage banner ad
image banner ad

HKKI - Kisumu

Situé à Kisumu, Kenya

ICAO - HKKI, IATA - KIS

Données fournies par Airmate  

Information générale

Coordonnées: S0°5'9" E34°43'44"
Élévation : 3795 feet MSL.
Variation magnétique : 1° East
Voir autres Aéroports à Nyanza Province

Données opérationnelles

Special qualification required
Heure actuelle UTC:
Heure actuelle locale:
Météo
TAF: TAF HKKI 171700Z 1718/1824 06005KT 9999 FEW020 BKN080 BECMG 1808/1811 23010KT FEW025CB SCT026 TEMPO 1813/1817 -TSRA FEW021CB SCT022 BKN080 BECMG 1820/1823 06005KT NSW FEW020 BKN080
Voir NOTAMs / SUP AIP / TFR affectant cet aéroport [VIEW]
Fréquences de communication: [VIEW]

Pistes:

Identifiant RWYQFULongueur (ft)Largeur (ft)SurfaceLDA (ft)
0662°9350146ASPH9843
24242°9350146ASPH10312

Coordonnées de l'aéroport

Vue satellite de HKKI